createdAt,value
2018-08-12T00:00:17.388Z,38.10
2018-08-12T00:02:45.920Z,38.60
2018-08-12T00:05:14.380Z,39.20
2018-08-12T00:07:42.903Z,39.70
2018-08-12T00:10:12.169Z,39.20
2018-08-12T00:12:41.259Z,39.30
2018-08-12T00:15:11.991Z,39.60
2018-08-12T00:17:40.767Z,39.90
2018-08-12T00:20:11.856Z,39.20
2018-08-12T00:22:40.382Z,39.70
2018-08-12T00:25:11.753Z,39.40
2018-08-12T00:27:40.280Z,38.60
2018-08-12T00:30:10.432Z,38.30
2018-08-12T00:32:38.955Z,38.80
2018-08-12T00:35:10.116Z,39.30
2018-08-12T00:37:38.695Z,40.10
2018-08-12T00:40:08.387Z,40.70
2018-08-12T00:42:37.288Z,41.00
2018-08-12T00:45:08.614Z,41.30
2018-08-12T00:47:37.136Z,40.90
2018-08-12T00:50:06.726Z,41.30
2018-08-12T00:52:35.557Z,41.40
2018-08-12T00:55:04.707Z,41.90
2018-08-12T00:57:33.309Z,40.50
2018-08-12T01:00:01.851Z,39.60
2018-08-12T01:02:30.435Z,38.80
2018-08-12T01:04:58.917Z,39.90
2018-08-12T01:07:27.435Z,38.90
2018-08-12T01:09:56.144Z,39.50
2018-08-12T01:12:24.578Z,39.60
2018-08-12T01:14:53.038Z,39.60
2018-08-12T01:17:21.618Z,40.00
2018-08-12T01:19:50.182Z,40.50
2018-08-12T01:22:18.609Z,40.90
2018-08-12T01:24:47.137Z,40.90
2018-08-12T01:27:15.516Z,40.40
2018-08-12T01:29:44.232Z,39.60
2018-08-12T01:32:12.616Z,39.60
2018-08-12T01:34:41.215Z,39.10
2018-08-12T01:37:09.639Z,39.50
2018-08-12T01:39:38.149Z,39.80
2018-08-12T01:42:07.314Z,40.70
2018-08-12T01:44:36.306Z,41.40
2018-08-12T01:47:04.845Z,40.30
2018-08-12T01:49:33.484Z,39.50
2018-08-12T01:52:01.968Z,41.50
2018-08-12T01:54:30.438Z,42.40
2018-08-12T01:56:58.868Z,42.80
2018-08-12T01:59:27.439Z,42.60
2018-08-12T02:01:55.956Z,42.60
2018-08-12T02:04:24.358Z,42.90
2018-08-12T02:06:52.829Z,43.30
2018-08-12T02:09:21.514Z,43.70
2018-08-12T02:11:50.149Z,43.30
2018-08-12T02:14:18.556Z,42.40
2018-08-12T02:16:46.967Z,43.80
2018-08-12T02:19:15.449Z,43.30
2018-08-12T02:21:43.869Z,43.70
2018-08-12T02:24:12.438Z,43.90
2018-08-12T02:26:41.550Z,43.60
2018-08-12T02:29:10.015Z,43.60
2018-08-12T02:31:38.853Z,43.60
2018-08-12T02:34:07.617Z,44.20
2018-08-12T02:36:36.157Z,44.40
2018-08-12T02:39:07.744Z,43.60
2018-08-12T02:41:36.691Z,44.00
2018-08-12T02:44:05.592Z,44.10
2018-08-12T02:46:34.927Z,44.50
2018-08-12T02:49:04.313Z,45.00
2018-08-12T02:51:33.014Z,44.60
2018-08-12T02:54:01.815Z,44.60
2018-08-12T02:56:30.301Z,44.40
2018-08-12T02:58:58.866Z,45.00
2018-08-12T03:01:27.213Z,45.10
2018-08-12T03:03:55.714Z,45.80
2018-08-12T03:06:24.129Z,45.80
2018-08-12T03:08:52.546Z,44.80
2018-08-12T03:11:21.593Z,44.90
2018-08-12T03:13:53.058Z,45.10
2018-08-12T03:16:21.548Z,45.80
2018-08-12T03:18:49.918Z,45.50
2018-08-12T03:21:18.548Z,46.10
2018-08-12T03:23:47.306Z,46.40
2018-08-12T03:26:15.732Z,46.00
2018-08-12T03:28:44.164Z,46.10
2018-08-12T03:31:12.592Z,45.80
2018-08-12T03:33:41.031Z,46.50
2018-08-12T03:36:09.600Z,46.80
2018-08-12T03:38:38.248Z,46.50
2018-08-12T03:41:06.856Z,46.50
2018-08-12T03:43:35.290Z,47.10
2018-08-12T03:46:04.105Z,46.60
2018-08-12T03:48:32.791Z,46.90
2018-08-12T03:51:01.668Z,46.80
2018-08-12T03:53:30.180Z,47.00
2018-08-12T03:55:58.644Z,46.90
2018-08-12T03:58:27.078Z,47.10
2018-08-12T04:00:56.476Z,46.70
2018-08-12T04:03:24.957Z,47.10
2018-08-12T04:05:53.791Z,47.20
2018-08-12T04:08:22.461Z,47.40
2018-08-12T04:10:50.984Z,47.30
2018-08-12T04:13:19.449Z,47.50
2018-08-12T04:15:47.857Z,46.90
2018-08-12T04:18:16.475Z,46.70
2018-08-12T04:20:44.997Z,46.40
2018-08-12T04:23:20.156Z,46.90
2018-08-12T04:25:48.726Z,46.90
2018-08-12T04:28:17.288Z,47.60
2018-08-12T04:30:45.837Z,47.90
2018-08-12T04:33:14.239Z,47.30
2018-08-12T04:35:42.699Z,46.80
2018-08-12T04:38:11.187Z,47.10
2018-08-12T04:40:39.629Z,47.20
2018-08-12T04:43:08.344Z,47.60
2018-08-12T04:45:37.472Z,47.30
2018-08-12T04:48:05.952Z,47.20
2018-08-12T04:50:34.387Z,47.60
2018-08-12T04:53:03.108Z,48.60
2018-08-12T04:55:31.796Z,48.40
2018-08-12T04:58:00.388Z,47.60
2018-08-12T05:00:28.812Z,47.50
2018-08-12T05:02:57.183Z,46.60
2018-08-12T05:05:25.619Z,46.90
2018-08-12T05:07:54.189Z,46.90
2018-08-12T05:10:22.724Z,47.30
2018-08-12T05:12:51.222Z,47.00
2018-08-12T05:15:19.720Z,47.30
2018-08-12T05:17:48.165Z,47.20
2018-08-12T05:20:16.670Z,46.50
2018-08-12T05:22:45.150Z,46.60
2018-08-12T05:25:13.605Z,46.80
2018-08-12T05:27:42.048Z,47.40
2018-08-12T05:30:11.166Z,47.70
2018-08-12T05:32:40.674Z,47.40
2018-08-12T05:35:10.807Z,47.50
2018-08-12T05:37:39.310Z,47.30
2018-08-12T05:40:09.070Z,47.30
2018-08-12T05:42:37.510Z,46.90
2018-08-12T05:45:07.204Z,47.30
2018-08-12T05:47:36.038Z,47.30
2018-08-12T05:50:05.418Z,47.70
2018-08-12T05:52:33.991Z,48.00
2018-08-12T05:55:03.094Z,47.40
2018-08-12T05:57:31.774Z,48.50
2018-08-12T06:00:00.304Z,48.00
2018-08-12T06:02:28.692Z,48.30
2018-08-12T06:04:58.063Z,47.80
2018-08-12T06:07:28.409Z,47.30
2018-08-12T06:09:57.542Z,46.90
2018-08-12T06:12:26.365Z,45.50
2018-08-12T06:14:55.614Z,45.30
2018-08-12T06:17:24.720Z,44.90
2018-08-12T06:19:53.570Z,44.40
2018-08-12T06:22:23.033Z,44.40
2018-08-12T06:24:52.332Z,44.60
2018-08-12T06:27:21.439Z,43.20
2018-08-12T06:29:50.874Z,43.20
2018-08-12T06:32:20.413Z,42.60
2018-08-12T06:34:49.121Z,42.30
2018-08-12T06:37:17.577Z,41.90
2018-08-12T06:39:46.066Z,41.80
2018-08-12T06:42:14.896Z,41.20
2018-08-12T06:44:43.691Z,40.60
2018-08-12T06:47:12.156Z,40.00
2018-08-12T06:49:40.680Z,39.40
2018-08-12T06:52:09.217Z,38.90
2018-08-12T06:54:37.798Z,38.20
2018-08-12T06:57:06.565Z,38.20
2018-08-12T06:59:35.128Z,37.90
2018-08-12T07:02:03.844Z,38.00
2018-08-12T07:04:32.568Z,38.20
2018-08-12T07:07:01.001Z,37.90
2018-08-12T07:09:29.500Z,37.30
2018-08-12T07:11:58.262Z,37.60
2018-08-12T07:14:26.854Z,35.10
2018-08-12T07:16:55.767Z,33.40
2018-08-12T07:19:24.727Z,30.80
2018-08-12T07:21:53.469Z,29.40
2018-08-12T07:24:22.100Z,27.40
2018-08-12T07:26:50.603Z,29.20
2018-08-12T07:29:19.283Z,30.30
2018-08-12T07:31:47.779Z,26.60
2018-08-12T07:34:16.232Z,26.80
2018-08-12T07:36:44.708Z,27.80
2018-08-12T07:39:13.526Z,26.90
2018-08-12T07:41:41.996Z,26.60
2018-08-12T07:44:10.404Z,26.60
2018-08-12T07:46:38.969Z,27.70
2018-08-12T07:49:07.488Z,28.10
2018-08-12T07:51:36.156Z,28.10
2018-08-12T07:54:04.876Z,28.60
2018-08-12T07:56:33.508Z,29.00
2018-08-12T07:59:02.070Z,29.10
2018-08-12T08:01:30.677Z,28.80
2018-08-12T08:03:59.124Z,29.30
2018-08-12T08:06:27.555Z,29.20
2018-08-12T08:08:56.085Z,30.00
2018-08-12T08:11:24.557Z,29.90
2018-08-12T08:13:53.044Z,30.00
2018-08-12T08:16:21.632Z,29.40
2018-08-12T08:18:50.134Z,29.50
2018-08-12T08:21:18.589Z,29.60
2018-08-12T08:23:47.137Z,28.80
2018-08-12T08:26:15.570Z,29.30
2018-08-12T08:28:44.008Z,29.10
2018-08-12T08:31:12.481Z,28.90
2018-08-12T08:33:40.898Z,29.30
2018-08-12T08:36:10.522Z,28.00
2018-08-12T08:38:39.084Z,26.90
2018-08-12T08:41:07.699Z,26.20
2018-08-12T08:43:37.102Z,26.40
2018-08-12T08:46:06.109Z,26.90
2018-08-12T08:48:35.188Z,26.90
2018-08-12T08:51:20.915Z,26.90
2018-08-12T08:53:52.829Z,27.10
2018-08-12T08:56:28.889Z,26.00
2018-08-12T08:59:07.812Z,26.10
2018-08-12T09:01:49.686Z,26.50
2018-08-12T09:04:19.185Z,26.10
2018-08-12T09:12:58.557Z,27.20
2018-08-12T09:15:55.093Z,27.10
2018-08-12T09:18:28.039Z,26.60
2018-08-12T09:20:56.797Z,26.50
2018-08-12T09:27:36.553Z,26.40
2018-08-12T09:30:35.021Z,26.60
2018-08-12T09:33:41.054Z,26.10
2018-08-12T09:36:20.612Z,26.70
2018-08-12T09:42:20.755Z,26.20
2018-08-12T10:02:31.574Z,25.80
2018-08-12T10:05:22.571Z,25.80
2018-08-12T10:07:52.765Z,25.50
2018-08-12T10:10:21.784Z,25.50
2018-08-12T10:12:51.368Z,25.40
2018-08-12T10:15:20.496Z,25.10
2018-08-12T10:17:51.610Z,25.30
2018-08-12T10:23:54.285Z,25.00
2018-08-12T10:26:33.087Z,25.10
2018-08-12T10:29:02.327Z,24.60
2018-08-12T10:31:31.625Z,24.50
2018-08-12T10:34:01.070Z,25.40
2018-08-12T10:36:30.432Z,24.90
2018-08-12T10:38:59.652Z,25.30
2018-08-12T10:41:29.079Z,25.30
2018-08-12T10:44:00.325Z,25.30
2018-08-12T10:46:29.360Z,25.40
2018-08-12T10:48:58.340Z,25.50
2018-08-12T10:51:27.547Z,25.50
2018-08-12T10:53:56.746Z,25.40
2018-08-12T10:56:25.660Z,25.20
2018-08-12T10:58:54.285Z,25.10
2018-08-12T11:01:23.797Z,25.10
2018-08-12T11:03:52.784Z,24.70
2018-08-12T11:06:21.375Z,24.60
2018-08-12T11:08:49.959Z,24.60
2018-08-12T11:11:18.687Z,24.50
2018-08-12T11:13:47.192Z,24.60
2018-08-12T11:16:15.703Z,24.40
2018-08-12T11:18:44.378Z,24.30
2018-08-12T11:21:13.147Z,24.30
2018-08-12T11:23:41.792Z,23.80
2018-08-12T11:26:10.324Z,23.60
2018-08-12T11:28:38.849Z,23.70
2018-08-12T11:31:07.687Z,23.70
2018-08-12T11:33:36.291Z,23.80
2018-08-12T11:36:05.217Z,23.80
2018-08-12T11:38:34.310Z,23.80
2018-08-12T11:41:03.618Z,23.80
2018-08-12T11:43:32.322Z,23.60
2018-08-12T11:46:01.303Z,23.80
2018-08-12T11:48:29.893Z,23.90
2018-08-12T11:50:58.517Z,23.20
2018-08-12T11:53:35.386Z,22.90
2018-08-12T11:56:03.969Z,23.20
2018-08-12T11:58:32.596Z,23.10
2018-08-12T12:01:01.038Z,22.70
2018-08-12T12:03:29.573Z,23.10
2018-08-12T12:05:58.198Z,22.70
2018-08-12T12:08:26.764Z,23.10
2018-08-12T12:10:55.467Z,23.20
2018-08-12T12:13:23.888Z,23.00
2018-08-12T12:15:52.552Z,22.80
2018-08-12T12:18:21.091Z,22.60
2018-08-12T12:20:49.734Z,22.30
2018-08-12T12:23:18.239Z,22.30
2018-08-12T12:25:48.254Z,22.70
2018-08-12T12:28:16.902Z,22.20
2018-08-12T12:30:45.374Z,22.40
2018-08-12T12:33:14.096Z,21.50
2018-08-12T12:35:42.944Z,21.00
2018-08-12T12:38:11.809Z,20.40
2018-08-12T12:40:41.073Z,20.60
2018-08-12T12:43:09.696Z,21.10
2018-08-12T12:45:38.378Z,21.10
2018-08-12T12:48:07.076Z,21.00
2018-08-12T12:50:36.013Z,20.90
2018-08-12T12:53:04.509Z,20.20
2018-08-12T12:55:33.274Z,20.20
2018-08-12T12:58:01.910Z,20.20
2018-08-12T13:00:30.370Z,20.30
2018-08-12T13:02:58.892Z,20.30
2018-08-12T13:05:27.359Z,20.30
2018-08-12T13:07:56.588Z,20.20
2018-08-12T13:10:25.362Z,20.30
2018-08-12T13:12:53.940Z,20.10
2018-08-12T13:15:22.591Z,20.30
2018-08-12T13:17:51.208Z,20.30
2018-08-12T13:20:21.014Z,20.30
2018-08-12T13:22:50.182Z,20.30
2018-08-12T13:25:20.221Z,19.30
2018-08-12T13:27:48.672Z,19.30
2018-08-12T13:30:18.277Z,19.40
2018-08-12T13:32:47.557Z,19.50
2018-08-12T13:35:16.192Z,19.00
2018-08-12T13:37:44.784Z,18.80
2018-08-12T13:40:14.823Z,18.90
2018-08-12T13:42:43.827Z,19.20
2018-08-12T13:45:12.881Z,19.50
2018-08-12T13:47:43.005Z,19.40
2018-08-12T13:50:16.588Z,19.10
2018-08-12T13:52:45.417Z,19.30
2018-08-12T13:55:13.888Z,19.00
2018-08-12T13:57:42.557Z,19.40
2018-08-12T14:00:13.541Z,18.20
2018-08-12T14:02:42.802Z,18.20
2018-08-12T14:05:12.296Z,18.60
2018-08-12T14:07:40.792Z,18.40
2018-08-12T14:10:10.172Z,18.40
2018-08-12T14:12:39.439Z,18.80
2018-08-12T14:15:11.459Z,19.00
2018-08-12T14:17:40.791Z,18.70
2018-08-12T14:20:10.336Z,18.60
2018-08-12T14:22:38.881Z,18.90
2018-08-12T14:25:07.932Z,18.80
2018-08-12T14:27:36.699Z,18.40
2018-08-12T14:30:08.869Z,18.80
2018-08-12T14:32:38.439Z,19.00
2018-08-12T14:35:08.288Z,19.00
2018-08-12T14:37:37.579Z,18.50
2018-08-12T14:40:07.090Z,18.70
2018-08-12T14:42:35.756Z,18.70
2018-08-12T14:45:04.677Z,18.90
2018-08-12T14:47:33.373Z,19.00
2018-08-12T14:50:01.983Z,18.90
2018-08-12T14:52:30.435Z,18.60
2018-08-12T14:54:58.997Z,18.60
2018-08-12T14:57:27.411Z,19.00
2018-08-12T14:59:55.907Z,18.70
2018-08-12T15:02:24.424Z,18.60
2018-08-12T15:04:52.874Z,18.60
2018-08-12T15:07:21.410Z,18.50
2018-08-12T15:09:49.883Z,18.60
2018-08-12T15:12:18.480Z,18.60
2018-08-12T15:14:46.972Z,18.00
2018-08-12T15:17:15.516Z,18.60
2018-08-12T15:19:43.972Z,18.30
2018-08-12T15:22:12.710Z,18.50
2018-08-12T15:24:41.252Z,18.60
2018-08-12T15:27:09.791Z,18.70
2018-08-12T15:29:38.372Z,18.20
2018-08-12T15:32:06.989Z,18.30
2018-08-12T15:34:36.014Z,18.20
2018-08-12T15:37:04.628Z,18.40
2018-08-12T15:39:33.268Z,18.10
2018-08-12T15:42:01.816Z,18.30
2018-08-12T15:44:30.211Z,18.60
2018-08-12T15:46:58.700Z,18.60
2018-08-12T15:49:27.157Z,18.40
2018-08-12T15:51:55.881Z,18.50
2018-08-12T15:54:24.424Z,18.50
2018-08-12T15:56:52.815Z,18.50
2018-08-12T15:59:21.621Z,19.20
2018-08-12T16:01:50.019Z,18.90
2018-08-12T16:04:18.514Z,18.80
2018-08-12T16:06:47.028Z,18.90
2018-08-12T16:09:15.417Z,18.90
2018-08-12T16:11:43.917Z,18.90
2018-08-12T16:14:12.390Z,18.80
2018-08-12T16:16:40.976Z,19.00
2018-08-12T16:19:09.451Z,19.10
2018-08-12T16:21:38.093Z,19.00
2018-08-12T16:24:06.685Z,19.30
2018-08-12T16:26:35.371Z,19.50
2018-08-12T16:29:04.622Z,19.40
2018-08-12T16:31:33.255Z,19.50
2018-08-12T16:34:01.796Z,19.60
2018-08-12T16:36:30.376Z,19.50
2018-08-12T16:38:59.460Z,19.80
2018-08-12T16:41:27.932Z,20.10
2018-08-12T16:43:56.364Z,19.70
2018-08-12T16:46:25.007Z,19.70
2018-08-12T16:48:54.144Z,19.90
2018-08-12T16:51:22.656Z,19.90
2018-08-12T16:53:51.056Z,19.80
2018-08-12T16:56:19.540Z,19.40
2018-08-12T16:58:48.040Z,20.00
2018-08-12T17:01:16.517Z,20.10
2018-08-12T17:03:44.998Z,20.20
2018-08-12T17:06:13.861Z,20.20
2018-08-12T17:08:42.737Z,20.20
2018-08-12T17:11:11.177Z,20.20
2018-08-12T17:13:39.716Z,20.50
2018-08-12T17:16:08.300Z,20.60
2018-08-12T17:18:36.798Z,20.90
2018-08-12T17:21:05.420Z,21.30
2018-08-12T17:23:36.497Z,21.50
2018-08-12T17:26:05.395Z,21.40
2018-08-12T17:28:33.842Z,21.30
2018-08-12T17:31:02.298Z,21.30
2018-08-12T17:33:30.737Z,20.70
2018-08-12T17:35:59.302Z,20.70
2018-08-12T17:38:27.809Z,20.70
2018-08-12T17:40:56.357Z,20.50
2018-08-12T17:43:24.827Z,20.60
2018-08-12T17:45:53.358Z,20.80
2018-08-12T17:48:21.783Z,21.10
2018-08-12T17:50:50.357Z,21.00
2018-08-12T17:53:18.833Z,21.30
2018-08-12T17:55:47.232Z,21.80
2018-08-12T17:58:15.733Z,22.90
2018-08-12T18:00:44.176Z,24.10
2018-08-12T18:03:12.639Z,25.50
2018-08-12T18:05:41.116Z,26.60
2018-08-12T18:08:09.661Z,27.00
2018-08-12T18:10:38.205Z,27.40
2018-08-12T18:13:06.952Z,27.90
2018-08-12T18:15:35.728Z,28.30
2018-08-12T18:18:05.185Z,29.20
2018-08-12T18:20:34.143Z,28.90
2018-08-12T18:23:03.739Z,29.20
2018-08-12T18:25:32.558Z,29.60
2018-08-12T18:28:01.947Z,29.80
2018-08-12T18:30:30.755Z,30.40
2018-08-12T18:32:59.720Z,30.30
2018-08-12T18:35:28.336Z,30.60
2018-08-12T18:37:57.028Z,30.80
2018-08-12T18:40:25.769Z,31.00
2018-08-12T18:42:54.299Z,31.50
2018-08-12T18:45:23.797Z,31.50
2018-08-12T18:47:53.219Z,31.40
2018-08-12T18:50:22.950Z,31.40
2018-08-12T18:52:52.732Z,31.40
2018-08-12T18:55:22.247Z,31.30
2018-08-12T18:57:51.317Z,31.30
2018-08-12T19:00:20.753Z,31.20
2018-08-12T19:02:50.400Z,31.30
2018-08-12T19:05:19.712Z,31.70
2018-08-12T19:07:48.751Z,31.70
2018-08-12T19:10:17.751Z,31.20
2018-08-12T19:12:47.198Z,31.20
2018-08-12T19:15:16.291Z,31.70
2018-08-12T19:17:45.537Z,31.90
2018-08-12T19:20:15.494Z,32.00
2018-08-12T19:22:46.175Z,31.80
2018-08-12T19:25:15.610Z,31.50
2018-08-12T19:27:44.148Z,31.70
2018-08-12T19:30:14.428Z,31.40
2018-08-12T19:32:42.957Z,31.40
2018-08-12T19:35:12.432Z,30.50
2018-08-12T19:37:42.453Z,30.50
2018-08-12T19:40:11.356Z,30.40
2018-08-12T19:42:40.230Z,30.40
2018-08-12T19:45:10.561Z,30.40
2018-08-12T19:47:39.959Z,30.30
2018-08-12T19:50:09.515Z,31.00
2018-08-12T19:52:39.087Z,31.00
2018-08-12T19:55:09.229Z,30.80
2018-08-12T19:57:39.081Z,31.00
2018-08-12T20:00:10.974Z,31.40
2018-08-12T20:02:39.623Z,31.60
2018-08-12T20:05:08.657Z,31.50
2018-08-12T20:07:37.348Z,31.80
2018-08-12T20:10:07.451Z,31.40
2018-08-12T20:12:36.618Z,30.80
2018-08-12T20:15:07.421Z,31.40
2018-08-12T20:17:36.395Z,30.40
2018-08-12T20:20:05.550Z,30.50
2018-08-12T20:22:34.535Z,30.90
2018-08-12T20:25:03.122Z,30.80
2018-08-12T20:27:31.708Z,30.70
2018-08-12T20:30:00.197Z,30.70
2018-08-12T20:32:28.640Z,30.90
2018-08-12T20:34:57.686Z,31.60
2018-08-12T20:37:26.904Z,30.80
2018-08-12T20:39:56.037Z,30.60
2018-08-12T20:42:24.969Z,30.60
2018-08-12T20:44:54.194Z,31.00
2018-08-12T20:47:23.056Z,31.00
2018-08-12T20:49:51.643Z,31.40
2018-08-12T20:52:20.168Z,31.40
2018-08-12T20:54:48.739Z,31.50
2018-08-12T20:57:17.607Z,31.40
2018-08-12T20:59:47.320Z,32.00
2018-08-12T21:02:15.831Z,31.90
2018-08-12T21:04:44.414Z,32.40
2018-08-12T21:07:13.017Z,32.10
2018-08-12T21:09:41.601Z,32.40
2018-08-12T21:12:10.322Z,32.90
2018-08-12T21:14:38.716Z,33.10
2018-08-12T21:17:07.465Z,32.90
2018-08-12T21:19:36.212Z,33.80
2018-08-12T21:22:05.334Z,33.80
2018-08-12T21:24:34.497Z,32.90
2018-08-12T21:27:11.828Z,33.90
2018-08-12T21:29:40.617Z,34.80
2018-08-12T21:32:09.236Z,33.80
2018-08-12T21:34:38.245Z,33.80
2018-08-12T21:37:06.816Z,33.80
2018-08-12T21:39:35.492Z,33.00
2018-08-12T21:42:04.373Z,32.60
2018-08-12T21:44:32.980Z,32.30
2018-08-12T21:47:01.558Z,32.90
2018-08-12T21:49:30.286Z,33.70
2018-08-12T21:51:58.921Z,34.40
2018-08-12T21:54:27.405Z,35.00
2018-08-12T21:56:56.023Z,34.60
2018-08-12T21:59:25.050Z,35.60
2018-08-12T22:01:53.906Z,35.40
2018-08-12T22:04:22.365Z,35.40
2018-08-12T22:06:50.861Z,35.60
2018-08-12T22:09:19.323Z,35.20
2018-08-12T22:11:47.752Z,35.60
2018-08-12T22:14:16.259Z,35.90
2018-08-12T22:16:44.992Z,36.20
2018-08-12T22:19:13.574Z,35.90
2018-08-12T22:21:42.107Z,36.30
2018-08-12T22:24:10.649Z,36.20
2018-08-12T22:26:39.284Z,36.10
2018-08-12T22:29:08.092Z,36.20
2018-08-12T22:31:36.952Z,36.80
2018-08-12T22:34:06.241Z,37.00
2018-08-12T22:36:35.770Z,36.90
2018-08-12T22:39:06.085Z,36.60
2018-08-12T22:41:35.262Z,36.90
2018-08-12T22:44:04.116Z,36.90
2018-08-12T22:46:32.857Z,36.90
2018-08-12T22:49:01.603Z,36.60
2018-08-12T22:51:30.097Z,36.90
2018-08-12T22:53:59.532Z,37.90
2018-08-12T22:56:28.126Z,37.90
2018-08-12T22:58:56.789Z,37.30
2018-08-12T23:01:25.248Z,37.70
2018-08-12T23:03:54.122Z,37.70
2018-08-12T23:06:22.573Z,37.80
2018-08-12T23:08:51.035Z,37.80
2018-08-12T23:11:19.541Z,37.80
2018-08-12T23:13:48.062Z,37.80
2018-08-12T23:16:27.776Z,37.70
2018-08-12T23:18:56.322Z,37.70
2018-08-12T23:21:24.757Z,37.70
2018-08-12T23:23:53.667Z,37.70
2018-08-12T23:26:23.612Z,37.70
2018-08-12T23:28:52.354Z,37.60
2018-08-12T23:31:21.138Z,37.70
2018-08-12T23:33:49.563Z,37.60
2018-08-12T23:36:18.145Z,37.60
2018-08-12T23:38:46.541Z,37.70
2018-08-12T23:41:14.989Z,37.60
2018-08-12T23:43:43.546Z,37.60
2018-08-12T23:46:12.218Z,38.00
2018-08-12T23:48:40.741Z,38.20
2018-08-12T23:51:09.381Z,38.30
2018-08-12T23:53:37.879Z,38.50
2018-08-12T23:56:06.516Z,38.80
2018-08-12T23:58:35.146Z,38.90
